sensor_id;sensor_type;location;lat;lon;timestamp;pressure;altitude;pressure_sealevel;temperature;humidity
63607;BME280;51327;52.466;-1.938;2022-11-06T00:00:17;99018.94;;;5.77;100.00
63607;BME280;51327;52.466;-1.938;2022-11-06T00:02:43;99020.97;;;5.72;100.00
63607;BME280;51327;52.466;-1.938;2022-11-06T00:05:14;99010.75;;;5.66;100.00
63607;BME280;51327;52.466;-1.938;2022-11-06T00:08:00;99009.22;;;5.62;100.00
63607;BME280;51327;52.466;-1.938;2022-11-06T00:10:28;99013.94;;;5.57;100.00
63607;BME280;51327;52.466;-1.938;2022-11-06T00:12:54;99014.25;;;5.51;100.00
63607;BME280;51327;52.466;-1.938;2022-11-06T00:15:19;99011.94;;;5.44;100.00
63607;BME280;51327;52.466;-1.938;2022-11-06T00:17:48;99012.13;;;5.41;100.00
63607;BME280;51327;52.466;-1.938;2022-11-06T00:20:16;99016.72;;;5.38;100.00
63607;BME280;51327;52.466;-1.938;2022-11-06T00:22:42;99020.25;;;5.38;100.00
63607;BME280;51327;52.466;-1.938;2022-11-06T00:25:08;99007.88;;;5.39;100.00
63607;BME280;51327;52.466;-1.938;2022-11-06T00:27:36;99012.91;;;5.43;100.00
63607;BME280;51327;52.466;-1.938;2022-11-06T00:30:03;99002.97;;;5.47;100.00
63607;BME280;51327;52.466;-1.938;2022-11-06T00:32:29;99007.09;;;5.53;100.00
63607;BME280;51327;52.466;-1.938;2022-11-06T00:34:56;98999.91;;;5.55;100.00
63607;BME280;51327;52.466;-1.938;2022-11-06T00:37:24;98994.50;;;5.56;100.00
63607;BME280;51327;52.466;-1.938;2022-11-06T00:39:49;98997.94;;;5.58;100.00
63607;BME280;51327;52.466;-1.938;2022-11-06T00:42:15;98997.00;;;5.59;100.00
63607;BME280;51327;52.466;-1.938;2022-11-06T00:44:43;98992.47;;;5.61;100.00
63607;BME280;51327;52.466;-1.938;2022-11-06T00:47:08;98993.06;;;5.67;100.00
63607;BME280;51327;52.466;-1.938;2022-11-06T00:49:34;98983.16;;;5.70;100.00
63607;BME280;51327;52.466;-1.938;2022-11-06T00:52:02;98985.53;;;5.75;100.00
63607;BME280;51327;52.466;-1.938;2022-11-06T00:54:27;98980.03;;;5.78;100.00
63607;BME280;51327;52.466;-1.938;2022-11-06T00:56:53;98985.91;;;5.83;100.00
63607;BME280;51327;52.466;-1.938;2022-11-06T00:59:21;98982.16;;;5.87;100.00
63607;BME280;51327;52.466;-1.938;2022-11-06T01:01:48;98976.59;;;5.92;100.00
63607;BME280;51327;52.466;-1.938;2022-11-06T01:04:21;98976.34;;;5.96;100.00
63607;BME280;51327;52.466;-1.938;2022-11-06T01:06:47;98984.03;;;6.01;100.00
63607;BME280;51327;52.466;-1.938;2022-11-06T01:09:14;98980.34;;;6.03;100.00
63607;BME280;51327;52.466;-1.938;2022-11-06T01:11:45;98969.56;;;6.06;100.00
63607;BME280;51327;52.466;-1.938;2022-11-06T01:14:12;98974.69;;;6.10;100.00
63607;BME280;51327;52.466;-1.938;2022-11-06T01:16:38;98977.13;;;6.13;100.00
63607;BME280;51327;52.466;-1.938;2022-11-06T01:19:06;98963.72;;;6.16;100.00
63607;BME280;51327;52.466;-1.938;2022-11-06T01:21:32;98967.78;;;6.21;100.00
63607;BME280;51327;52.466;-1.938;2022-11-06T01:24:00;98958.13;;;6.20;100.00
63607;BME280;51327;52.466;-1.938;2022-11-06T01:26:28;98955.38;;;6.22;100.00
63607;BME280;51327;52.466;-1.938;2022-11-06T01:28:54;98954.31;;;6.24;100.00
63607;BME280;51327;52.466;-1.938;2022-11-06T01:31:21;98946.22;;;6.27;100.00
63607;BME280;51327;52.466;-1.938;2022-11-06T01:33:49;98940.81;;;6.29;100.00
63607;BME280;51327;52.466;-1.938;2022-11-06T01:36:15;98942.50;;;6.30;100.00
63607;BME280;51327;52.466;-1.938;2022-11-06T01:38:44;98927.38;;;6.32;100.00
63607;BME280;51327;52.466;-1.938;2022-11-06T01:41:15;98930.00;;;6.32;100.00
63607;BME280;51327;52.466;-1.938;2022-11-06T01:43:47;98925.63;;;6.31;100.00
63607;BME280;51327;52.466;-1.938;2022-11-06T01:46:16;98921.31;;;6.30;100.00
63607;BME280;51327;52.466;-1.938;2022-11-06T01:48:44;98904.72;;;6.26;100.00
63607;BME280;51327;52.466;-1.938;2022-11-06T01:51:10;98911.19;;;6.22;100.00
63607;BME280;51327;52.466;-1.938;2022-11-06T01:53:39;98907.16;;;6.15;100.00
63607;BME280;51327;52.466;-1.938;2022-11-06T01:56:06;98907.66;;;6.07;100.00
63607;BME280;51327;52.466;-1.938;2022-11-06T01:58:33;98895.72;;;6.00;100.00
63607;BME280;51327;52.466;-1.938;2022-11-06T02:01:02;98888.22;;;5.93;100.00
63607;BME280;51327;52.466;-1.938;2022-11-06T02:03:28;98892.91;;;5.88;100.00
63607;BME280;51327;52.466;-1.938;2022-11-06T02:05:53;98888.44;;;5.88;100.00
63607;BME280;51327;52.466;-1.938;2022-11-06T02:08:23;98888.56;;;5.86;100.00
63607;BME280;51327;52.466;-1.938;2022-11-06T02:10:49;98883.91;;;5.90;100.00
63607;BME280;51327;52.466;-1.938;2022-11-06T02:13:33;98883.50;;;5.98;100.00
63607;BME280;51327;52.466;-1.938;2022-11-06T02:18:51;98877.53;;;6.09;100.00
63607;BME280;51327;52.466;-1.938;2022-11-06T02:23:56;98851.63;;;6.14;100.00
63607;BME280;51327;52.466;-1.938;2022-11-06T02:29:14;98847.84;;;6.18;100.00
63607;BME280;51327;52.466;-1.938;2022-11-06T02:31:43;98836.34;;;6.17;100.00
63607;BME280;51327;52.466;-1.938;2022-11-06T02:34:11;98828.50;;;6.16;100.00
63607;BME280;51327;52.466;-1.938;2022-11-06T02:36:49;98832.31;;;6.12;100.00
63607;BME280;51327;52.466;-1.938;2022-11-06T02:39:22;98830.69;;;6.09;100.00
63607;BME280;51327;52.466;-1.938;2022-11-06T02:41:51;98827.38;;;6.05;100.00
63607;BME280;51327;52.466;-1.938;2022-11-06T02:44:21;98827.56;;;6.02;100.00
63607;BME280;51327;52.466;-1.938;2022-11-06T02:46:52;98823.19;;;6.01;100.00
63607;BME280;51327;52.466;-1.938;2022-11-06T02:50:04;98821.50;;;6.00;100.00
63607;BME280;51327;52.466;-1.938;2022-11-06T02:52:46;98817.13;;;5.99;100.00
63607;BME280;51327;52.466;-1.938;2022-11-06T02:55:09;98818.09;;;5.98;100.00
63607;BME280;51327;52.466;-1.938;2022-11-06T02:57:36;98812.03;;;5.96;100.00
63607;BME280;51327;52.466;-1.938;2022-11-06T03:00:05;98819.16;;;5.96;100.00
63607;BME280;51327;52.466;-1.938;2022-11-06T03:02:57;98801.44;;;5.96;100.00
63607;BME280;51327;52.466;-1.938;2022-11-06T03:05:40;98807.59;;;5.97;100.00
63607;BME280;51327;52.466;-1.938;2022-11-06T03:10:40;98808.25;;;6.00;100.00
63607;BME280;51327;52.466;-1.938;2022-11-06T03:13:18;98797.75;;;5.99;100.00
63607;BME280;51327;52.466;-1.938;2022-11-06T03:15:57;98788.88;;;6.00;100.00
63607;BME280;51327;52.466;-1.938;2022-11-06T03:18:36;98779.03;;;6.02;100.00
63607;BME280;51327;52.466;-1.938;2022-11-06T03:21:16;98772.84;;;6.01;100.00
63607;BME280;51327;52.466;-1.938;2022-11-06T03:23:48;98770.19;;;6.01;100.00
63607;BME280;51327;52.466;-1.938;2022-11-06T03:26:19;98766.69;;;6.01;100.00
63607;BME280;51327;52.466;-1.938;2022-11-06T03:28:59;98763.28;;;5.99;100.00
63607;BME280;51327;52.466;-1.938;2022-11-06T03:31:31;98765.94;;;5.99;100.00
63607;BME280;51327;52.466;-1.938;2022-11-06T03:34:06;98767.66;;;6.00;100.00
63607;BME280;51327;52.466;-1.938;2022-11-06T03:36:33;98768.50;;;6.00;100.00
63607;BME280;51327;52.466;-1.938;2022-11-06T03:39:25;98776.44;;;6.00;100.00
63607;BME280;51327;52.466;-1.938;2022-11-06T03:44:17;98773.25;;;5.95;100.00
63607;BME280;51327;52.466;-1.938;2022-11-06T03:46:46;98772.28;;;5.96;100.00
63607;BME280;51327;52.466;-1.938;2022-11-06T03:49:14;98768.59;;;5.99;100.00
63607;BME280;51327;52.466;-1.938;2022-11-06T03:51:48;98764.41;;;5.95;100.00
63607;BME280;51327;52.466;-1.938;2022-11-06T03:54:19;98761.94;;;5.92;100.00
63607;BME280;51327;52.466;-1.938;2022-11-06T03:56:56;98755.81;;;5.91;100.00
63607;BME280;51327;52.466;-1.938;2022-11-06T03:59:27;98751.44;;;5.90;100.00
63607;BME280;51327;52.466;-1.938;2022-11-06T04:01:55;98751.63;;;5.87;100.00
63607;BME280;51327;52.466;-1.938;2022-11-06T04:04:31;98756.25;;;5.83;100.00
63607;BME280;51327;52.466;-1.938;2022-11-06T04:09:27;98750.22;;;5.81;100.00
63607;BME280;51327;52.466;-1.938;2022-11-06T04:12:16;98744.06;;;5.81;100.00
63607;BME280;51327;52.466;-1.938;2022-11-06T04:15:03;98744.94;;;5.81;100.00
63607;BME280;51327;52.466;-1.938;2022-11-06T04:17:31;98732.63;;;5.80;100.00
63607;BME280;51327;52.466;-1.938;2022-11-06T04:20:00;98730.63;;;5.84;100.00
63607;BME280;51327;52.466;-1.938;2022-11-06T04:28:14;98702.13;;;5.88;100.00
63607;BME280;51327;52.466;-1.938;2022-11-06T04:31:07;98700.16;;;5.91;100.00
63607;BME280;51327;52.466;-1.938;2022-11-06T04:33:33;98698.34;;;5.92;100.00
63607;BME280;51327;52.466;-1.938;2022-11-06T04:38:51;98694.09;;;6.03;100.00
63607;BME280;51327;52.466;-1.938;2022-11-06T04:41:27;98693.91;;;6.06;100.00
63607;BME280;51327;52.466;-1.938;2022-11-06T04:44:06;98690.00;;;6.12;100.00
63607;BME280;51327;52.466;-1.938;2022-11-06T04:46:36;98691.44;;;6.18;100.00
63607;BME280;51327;52.466;-1.938;2022-11-06T04:49:04;98691.13;;;6.22;100.00
63607;BME280;51327;52.466;-1.938;2022-11-06T04:51:30;98677.56;;;6.27;100.00
63607;BME280;51327;52.466;-1.938;2022-11-06T04:53:59;98676.53;;;6.30;100.00
63607;BME280;51327;52.466;-1.938;2022-11-06T04:56:28;98677.38;;;6.30;100.00
63607;BME280;51327;52.466;-1.938;2022-11-06T04:58:54;98668.25;;;6.34;100.00
63607;BME280;51327;52.466;-1.938;2022-11-06T05:01:22;98662.75;;;6.37;100.00
63607;BME280;51327;52.466;-1.938;2022-11-06T05:03:51;98674.19;;;6.38;100.00
63607;BME280;51327;52.466;-1.938;2022-11-06T05:06:19;98659.88;;;6.40;100.00
63607;BME280;51327;52.466;-1.938;2022-11-06T05:08:44;98652.69;;;6.42;100.00
63607;BME280;51327;52.466;-1.938;2022-11-06T05:11:10;98655.34;;;6.42;100.00
63607;BME280;51327;52.466;-1.938;2022-11-06T05:13:38;98659.63;;;6.45;100.00
63607;BME280;51327;52.466;-1.938;2022-11-06T05:16:04;98661.31;;;6.46;100.00
63607;BME280;51327;52.466;-1.938;2022-11-06T05:18:30;98666.50;;;6.47;100.00
63607;BME280;51327;52.466;-1.938;2022-11-06T05:20:59;98663.84;;;6.47;100.00
63607;BME280;51327;52.466;-1.938;2022-11-06T05:23:45;98661.09;;;6.49;100.00
63607;BME280;51327;52.466;-1.938;2022-11-06T05:26:13;98658.34;;;6.51;100.00
63607;BME280;51327;52.466;-1.938;2022-11-06T05:28:40;98654.00;;;6.50;100.00
63607;BME280;51327;52.466;-1.938;2022-11-06T05:31:08;98654.84;;;6.50;100.00
63607;BME280;51327;52.466;-1.938;2022-11-06T05:33:34;98657.50;;;6.50;100.00
63607;BME280;51327;52.466;-1.938;2022-11-06T05:36:04;98649.41;;;6.52;100.00
63607;BME280;51327;52.466;-1.938;2022-11-06T05:38:32;98640.63;;;6.51;100.00
63607;BME280;51327;52.466;-1.938;2022-11-06T05:41:00;98630.66;;;6.55;100.00
63607;BME280;51327;52.466;-1.938;2022-11-06T05:43:25;98626.13;;;6.57;100.00
63607;BME280;51327;52.466;-1.938;2022-11-06T05:45:51;98625.06;;;6.59;100.00
63607;BME280;51327;52.466;-1.938;2022-11-06T05:48:19;98616.03;;;6.62;100.00
63607;BME280;51327;52.466;-1.938;2022-11-06T05:50:46;98611.47;;;6.64;100.00
63607;BME280;51327;52.466;-1.938;2022-11-06T05:53:14;98612.31;;;6.64;100.00
63607;BME280;51327;52.466;-1.938;2022-11-06T05:55:40;98610.31;;;6.68;100.00
63607;BME280;51327;52.466;-1.938;2022-11-06T05:58:05;98607.53;;;6.69;100.00
63607;BME280;51327;52.466;-1.938;2022-11-06T06:00:33;98605.53;;;6.73;100.00
63607;BME280;51327;52.466;-1.938;2022-11-06T06:03:01;98599.19;;;6.76;100.00
63607;BME280;51327;52.466;-1.938;2022-11-06T06:05:29;98607.88;;;6.78;100.00
63607;BME280;51327;52.466;-1.938;2022-11-06T06:07:54;98596.22;;;6.80;100.00
63607;BME280;51327;52.466;-1.938;2022-11-06T06:10:20;98605.88;;;6.81;100.00
63607;BME280;51327;52.466;-1.938;2022-11-06T06:12:48;98603.22;;;6.81;100.00
63607;BME280;51327;52.466;-1.938;2022-11-06T06:15:16;98607.56;;;6.82;100.00
63607;BME280;51327;52.466;-1.938;2022-11-06T06:17:43;98611.91;;;6.83;100.00
63607;BME280;51327;52.466;-1.938;2022-11-06T06:20:11;98613.41;;;6.87;100.00
63607;BME280;51327;52.466;-1.938;2022-11-06T06:22:36;98609.81;;;6.88;100.00
63607;BME280;51327;52.466;-1.938;2022-11-06T06:25:04;98601.72;;;6.90;100.00
63607;BME280;51327;52.466;-1.938;2022-11-06T06:27:32;98606.09;;;6.91;100.00
63607;BME280;51327;52.466;-1.938;2022-11-06T06:30:00;98596.22;;;6.93;100.00
63607;BME280;51327;52.466;-1.938;2022-11-06T06:32:25;98594.41;;;6.94;100.00
63607;BME280;51327;52.466;-1.938;2022-11-06T06:34:51;98588.13;;;6.95;100.00
63607;BME280;51327;52.466;-1.938;2022-11-06T06:37:18;98582.72;;;6.96;100.00
63607;BME280;51327;52.466;-1.938;2022-11-06T06:39:46;98582.72;;;6.96;100.00
63607;BME280;51327;52.466;-1.938;2022-11-06T06:42:15;98575.50;;;6.98;100.00
63607;BME280;51327;52.466;-1.938;2022-11-06T06:44:40;98578.16;;;6.98;100.00
63607;BME280;51327;52.466;-1.938;2022-11-06T06:47:06;98571.03;;;6.99;100.00
63607;BME280;51327;52.466;-1.938;2022-11-06T06:49:34;98563.09;;;6.99;100.00
63607;BME280;51327;52.466;-1.938;2022-11-06T06:52:00;98543.34;;;6.90;100.00
63607;BME280;51327;52.466;-1.938;2022-11-06T06:54:27;98547.06;;;7.00;100.00
63607;BME280;51327;52.466;-1.938;2022-11-06T06:56:55;98544.31;;;7.02;100.00
63607;BME280;51327;52.466;-1.938;2022-11-06T06:59:20;98543.25;;;7.04;100.00
63607;BME280;51327;52.466;-1.938;2022-11-06T07:01:46;98535.88;;;7.08;100.00
63607;BME280;51327;52.466;-1.938;2022-11-06T07:04:16;98526.84;;;7.10;100.00
63607;BME280;51327;52.466;-1.938;2022-11-06T07:06:41;98526.75;;;7.12;100.00
63607;BME280;51327;52.466;-1.938;2022-11-06T07:09:07;98520.59;;;7.11;100.00
63607;BME280;51327;52.466;-1.938;2022-11-06T07:11:35;98519.63;;;7.13;100.00
63607;BME280;51327;52.466;-1.938;2022-11-06T07:14:01;98521.34;;;7.14;100.00
63607;BME280;51327;52.466;-1.938;2022-11-06T07:16:26;98511.66;;;7.13;100.00
63607;BME280;51327;52.466;-1.938;2022-11-06T07:18:56;98516.88;;;7.14;100.00
63607;BME280;51327;52.466;-1.938;2022-11-06T07:21:24;98514.22;;;7.14;100.00
63607;BME280;51327;52.466;-1.938;2022-11-06T07:23:51;98504.44;;;7.15;100.00
63607;BME280;51327;52.466;-1.938;2022-11-06T07:26:19;98499.13;;;7.15;100.00
63607;BME280;51327;52.466;-1.938;2022-11-06T07:28:45;98493.00;;;7.14;100.00
63607;BME280;51327;52.466;-1.938;2022-11-06T07:31:10;98495.66;;;7.14;100.00
63607;BME280;51327;52.466;-1.938;2022-11-06T07:33:41;98493.97;;;7.13;100.00
63607;BME280;51327;52.466;-1.938;2022-11-06T07:36:07;98494.06;;;7.11;100.00
63607;BME280;51327;52.466;-1.938;2022-11-06T07:38:34;98482.59;;;7.11;100.00
63607;BME280;51327;52.466;-1.938;2022-11-06T07:41:05;98485.44;;;7.08;100.00
63607;BME280;51327;52.466;-1.938;2022-11-06T07:43:33;98488.09;;;7.08;100.00
63607;BME280;51327;52.466;-1.938;2022-11-06T07:46:02;98478.56;;;7.05;100.00
63607;BME280;51327;52.466;-1.938;2022-11-06T07:48:28;98473.34;;;7.04;100.00
63607;BME280;51327;52.466;-1.938;2022-11-06T07:50:54;98466.13;;;7.06;100.00
63607;BME280;51327;52.466;-1.938;2022-11-06T07:53:22;98466.13;;;7.06;100.00
63607;BME280;51327;52.466;-1.938;2022-11-06T07:55:51;98463.47;;;7.06;100.00
63607;BME280;51327;52.466;-1.938;2022-11-06T07:58:19;98467.84;;;7.07;100.00
63607;BME280;51327;52.466;-1.938;2022-11-06T08:00:47;98459.75;;;7.08;100.00
63607;BME280;51327;52.466;-1.938;2022-11-06T08:03:13;98461.38;;;7.11;100.00
63607;BME280;51327;52.466;-1.938;2022-11-06T08:05:39;98459.44;;;7.13;100.00
63607;BME280;51327;52.466;-1.938;2022-11-06T08:08:07;98462.81;;;7.15;100.00
63607;BME280;51327;52.466;-1.938;2022-11-06T08:10:32;98457.31;;;7.18;100.00
63607;BME280;51327;52.466;-1.938;2022-11-06T08:13:01;98469.59;;;7.19;100.00
63607;BME280;51327;52.466;-1.938;2022-11-06T08:15:29;98460.47;;;7.23;100.00
63607;BME280;51327;52.466;-1.938;2022-11-06T08:17:57;98458.56;;;7.25;100.00
63607;BME280;51327;52.466;-1.938;2022-11-06T08:20:22;98467.16;;;7.29;100.00
63607;BME280;51327;52.466;-1.938;2022-11-06T08:22:50;98456.28;;;7.32;100.00
63607;BME280;51327;52.466;-1.938;2022-11-06T08:25:15;98447.34;;;7.33;100.00
63607;BME280;51327;52.466;-1.938;2022-11-06T08:27:41;98451.59;;;7.36;100.00
63607;BME280;51327;52.466;-1.938;2022-11-06T08:30:09;98458.38;;;7.40;100.00
63607;BME280;51327;52.466;-1.938;2022-11-06T08:32:37;98464.44;;;7.42;100.00
63607;BME280;51327;52.466;-1.938;2022-11-06T08:35:04;98458.03;;;7.44;100.00
63607;BME280;51327;52.466;-1.938;2022-11-06T08:37:30;98462.28;;;7.47;100.00
63607;BME280;51327;52.466;-1.938;2022-11-06T08:39:56;98451.44;;;7.50;100.00
63607;BME280;51327;52.466;-1.938;2022-11-06T08:42:23;98463.56;;;7.54;100.00
63607;BME280;51327;52.466;-1.938;2022-11-06T08:44:51;98458.84;;;7.58;100.00
63607;BME280;51327;52.466;-1.938;2022-11-06T08:47:19;98464.78;;;7.61;100.00
63607;BME280;51327;52.466;-1.938;2022-11-06T08:49:46;98459.22;;;7.64;100.00
63607;BME280;51327;52.466;-1.938;2022-11-06T08:52:12;98449.97;;;7.70;100.00
63607;BME280;51327;52.466;-1.938;2022-11-06T08:54:38;98438.03;;;7.76;100.00
63607;BME280;51327;52.466;-1.938;2022-11-06T08:57:05;98450.22;;;7.78;100.00
63607;BME280;51327;52.466;-1.938;2022-11-06T08:59:31;98450.13;;;7.80;100.00
63607;BME280;51327;52.466;-1.938;2022-11-06T09:01:57;98443.00;;;7.80;100.00
63607;BME280;51327;52.466;-1.938;2022-11-06T09:04:25;98437.56;;;7.82;100.00
63607;BME280;51327;52.466;-1.938;2022-11-06T09:06:55;98429.47;;;7.83;100.00
63607;BME280;51327;52.466;-1.938;2022-11-06T09:09:20;98426.81;;;7.83;100.00
63607;BME280;51327;52.466;-1.938;2022-11-06T09:11:46;98419.72;;;7.84;100.00
63607;BME280;51327;52.466;-1.938;2022-11-06T09:14:14;98418.84;;;7.83;100.00
63607;BME280;51327;52.466;-1.938;2022-11-06T09:16:39;98417.03;;;7.84;100.00
63607;BME280;51327;52.466;-1.938;2022-11-06T09:19:05;98422.13;;;7.87;100.00
63607;BME280;51327;52.466;-1.938;2022-11-06T09:21:32;98420.31;;;7.87;100.00
63607;BME280;51327;52.466;-1.938;2022-11-06T09:23:59;98420.09;;;7.90;100.00
63607;BME280;51327;52.466;-1.938;2022-11-06T09:26:25;98414.63;;;7.92;100.00
63607;BME280;51327;52.466;-1.938;2022-11-06T09:28:54;98426.00;;;7.94;100.00
63607;BME280;51327;52.466;-1.938;2022-11-06T09:31:21;98436.53;;;7.95;100.00
63607;BME280;51327;52.466;-1.938;2022-11-06T09:33:47;98440.75;;;7.98;100.00
63607;BME280;51327;52.466;-1.938;2022-11-06T09:36:12;98439.78;;;7.99;100.00
63607;BME280;51327;52.466;-1.938;2022-11-06T09:38:40;98435.19;;;8.01;100.00
63607;BME280;51327;52.466;-1.938;2022-11-06T09:41:17;98437.66;;;8.04;100.00
63607;BME280;51327;52.466;-1.938;2022-11-06T09:46:25;98437.16;;;8.10;100.00
63607;BME280;51327;52.466;-1.938;2022-11-06T09:48:54;98429.06;;;8.12;100.00
63607;BME280;51327;52.466;-1.938;2022-11-06T09:51:27;98412.88;;;8.15;100.00
63607;BME280;51327;52.466;-1.938;2022-11-06T09:54:00;98406.59;;;8.16;100.00
63607;BME280;51327;52.466;-1.938;2022-11-06T09:56:31;98401.19;;;8.18;100.00
63607;BME280;51327;52.466;-1.938;2022-11-06T09:58:58;98405.28;;;8.22;100.00
63607;BME280;51327;52.466;-1.938;2022-11-06T10:01:27;98410.38;;;8.25;100.00
63607;BME280;51327;52.466;-1.938;2022-11-06T10:03:59;98413.75;;;8.27;100.00
63607;BME280;51327;52.466;-1.938;2022-11-06T10:06:25;98399.22;;;8.31;100.00
63607;BME280;51327;52.466;-1.938;2022-11-06T10:08:52;98386.66;;;8.33;100.00
63607;BME280;51327;52.466;-1.938;2022-11-06T10:11:25;98390.78;;;8.37;100.00
63607;BME280;51327;52.466;-1.938;2022-11-06T10:17:00;98363.50;;;8.46;100.00
63607;BME280;51327;52.466;-1.938;2022-11-06T10:19:38;98360.47;;;8.51;100.00
63607;BME280;51327;52.466;-1.938;2022-11-06T10:27:23;98336.50;;;8.62;100.00
63607;BME280;51327;52.466;-1.938;2022-11-06T10:34:47;98330.31;;;8.84;100.00
63607;BME280;51327;52.466;-1.938;2022-11-06T10:37:21;98330.66;;;8.91;100.00
63607;BME280;51327;52.466;-1.938;2022-11-06T10:39:50;98326.53;;;8.98;100.00
63607;BME280;51327;52.466;-1.938;2022-11-06T10:42:24;98322.75;;;9.01;100.00
63607;BME280;51327;52.466;-1.938;2022-11-06T10:44:57;98317.16;;;9.04;100.00
63607;BME280;51327;52.466;-1.938;2022-11-06T10:47:29;98315.00;;;9.09;100.00
63607;BME280;51327;52.466;-1.938;2022-11-06T10:49:56;98301.31;;;9.13;100.00
63607;BME280;51327;52.466;-1.938;2022-11-06T10:57:51;98288.78;;;9.25;100.00
63607;BME280;51327;52.466;-1.938;2022-11-06T11:00:20;98282.22;;;9.29;100.00
63607;BME280;51327;52.466;-1.938;2022-11-06T11:02:54;98272.84;;;9.35;100.00
63607;BME280;51327;52.466;-1.938;2022-11-06T11:05:24;98268.84;;;9.40;100.00
63607;BME280;51327;52.466;-1.938;2022-11-06T11:07:53;98258.19;;;9.40;100.00
63607;BME280;51327;52.466;-1.938;2022-11-06T11:12:58;98255.03;;;9.35;100.00
63607;BME280;51327;52.466;-1.938;2022-11-06T11:15:31;98250.00;;;9.32;100.00
63607;BME280;51327;52.466;-1.938;2022-11-06T11:18:07;98241.59;;;9.37;100.00
63607;BME280;51327;52.466;-1.938;2022-11-06T11:23:29;98231.72;;;9.49;100.00
63607;BME280;51327;52.466;-1.938;2022-11-06T11:25:56;98230.38;;;9.54;100.00
63607;BME280;51327;52.466;-1.938;2022-11-06T11:28:33;98227.31;;;9.59;100.00
63607;BME280;51327;52.466;-1.938;2022-11-06T11:31:06;98227.75;;;9.64;100.00
63607;BME280;51327;52.466;-1.938;2022-11-06T11:33:33;98232.56;;;9.70;100.00
63607;BME280;51327;52.466;-1.938;2022-11-06T11:36:00;98236.25;;;9.79;100.00
63607;BME280;51327;52.466;-1.938;2022-11-06T11:38:29;98234.03;;;9.84;100.00
63607;BME280;51327;52.466;-1.938;2022-11-06T11:43:32;98225.50;;;9.90;100.00
63607;BME280;51327;52.466;-1.938;2022-11-06T11:46:00;98214.69;;;9.92;100.00
63607;BME280;51327;52.466;-1.938;2022-11-06T11:48:42;98210.19;;;9.92;100.00
63607;BME280;51327;52.466;-1.938;2022-11-06T11:51:51;98204.44;;;9.97;100.00
63607;BME280;51327;52.466;-1.938;2022-11-06T11:54:03;98206.88;;;10.00;100.00
63607;BME280;51327;52.466;-1.938;2022-11-06T11:56:30;98202.38;;;10.00;100.00
63607;BME280;51327;52.466;-1.938;2022-11-06T11:58:57;98196.19;;;10.00;100.00
63607;BME280;51327;52.466;-1.938;2022-11-06T12:01:33;98191.97;;;9.97;100.00
63607;BME280;51327;52.466;-1.938;2022-11-06T12:04:00;98187.88;;;9.93;100.00
63607;BME280;51327;52.466;-1.938;2022-11-06T12:06:34;98184.78;;;9.88;100.00
63607;BME280;51327;52.466;-1.938;2022-11-06T12:08:59;98173.66;;;9.83;100.00
63607;BME280;51327;52.466;-1.938;2022-11-06T12:11:26;98180.81;;;9.82;100.00
63607;BME280;51327;52.466;-1.938;2022-11-06T12:16:42;98167.50;;;9.82;100.00
63607;BME280;51327;52.466;-1.938;2022-11-06T12:19:11;98152.94;;;9.87;100.00
63607;BME280;51327;52.466;-1.938;2022-11-06T12:21:37;98153.34;;;9.92;100.00
63607;BME280;51327;52.466;-1.938;2022-11-06T12:24:09;98142.44;;;9.95;100.00
63607;BME280;51327;52.466;-1.938;2022-11-06T12:26:56;98134.56;;;10.03;100.00
63607;BME280;51327;52.466;-1.938;2022-11-06T12:29:37;98130.25;;;10.12;100.00
63607;BME280;51327;52.466;-1.938;2022-11-06T12:32:27;98125.34;;;10.17;100.00
63607;BME280;51327;52.466;-1.938;2022-11-06T12:37:36;98125.63;;;10.23;100.00
63607;BME280;51327;52.466;-1.938;2022-11-06T12:40:49;98120.03;;;10.27;100.00
63607;BME280;51327;52.466;-1.938;2022-11-06T12:45:23;98110.22;;;10.37;100.00
63607;BME280;51327;52.466;-1.938;2022-11-06T12:47:53;98098.19;;;10.42;100.00
63607;BME280;51327;52.466;-1.938;2022-11-06T12:50:27;98094.38;;;10.45;100.00
63607;BME280;51327;52.466;-1.938;2022-11-06T12:53:07;98092.41;;;10.47;100.00
63607;BME280;51327;52.466;-1.938;2022-11-06T12:55:55;98087.22;;;10.45;100.00
63607;BME280;51327;52.466;-1.938;2022-11-06T13:01:19;98081.88;;;10.36;100.00
63607;BME280;51327;52.466;-1.938;2022-11-06T13:06:38;98083.53;;;10.27;100.00
63607;BME280;51327;52.466;-1.938;2022-11-06T13:09:09;98074.94;;;10.23;100.00
63607;BME280;51327;52.466;-1.938;2022-11-06T13:11:47;98068.06;;;10.21;100.00
63607;BME280;51327;52.466;-1.938;2022-11-06T13:14:21;98076.63;;;10.15;100.00
63607;BME280;51327;52.466;-1.938;2022-11-06T13:16:59;98073.53;;;10.10;100.00
63607;BME280;51327;52.466;-1.938;2022-11-06T13:19:30;98074.94;;;10.04;100.00
63607;BME280;51327;52.466;-1.938;2022-11-06T13:22:06;98070.88;;;10.00;100.00
63607;BME280;51327;52.466;-1.938;2022-11-06T13:27:04;98051.19;;;9.91;100.00
63607;BME280;51327;52.466;-1.938;2022-11-06T13:29:36;98039.28;;;9.86;100.00
63607;BME280;51327;52.466;-1.938;2022-11-06T13:32:03;98031.53;;;9.82;100.00
63607;BME280;51327;52.466;-1.938;2022-11-06T13:34:30;98028.16;;;9.80;100.00
63607;BME280;51327;52.466;-1.938;2022-11-06T13:36:59;98027.31;;;9.80;100.00
63607;BME280;51327;52.466;-1.938;2022-11-06T13:39:30;98025.78;;;9.77;100.00
63607;BME280;51327;52.466;-1.938;2022-11-06T13:41:57;98023.25;;;9.76;100.00
63607;BME280;51327;52.466;-1.938;2022-11-06T13:44:25;98031.41;;;9.74;100.00
63607;BME280;51327;52.466;-1.938;2022-11-06T13:49:40;98036.00;;;9.72;100.00
63607;BME280;51327;52.466;-1.938;2022-11-06T14:07:33;98032.78;;;9.69;100.00
63607;BME280;51327;52.466;-1.938;2022-11-06T14:10:14;98019.56;;;9.67;100.00
63607;BME280;51327;52.466;-1.938;2022-11-06T14:12:46;98034.00;;;9.65;100.00
63607;BME280;51327;52.466;-1.938;2022-11-06T14:15:25;98025.06;;;9.66;100.00
63607;BME280;51327;52.466;-1.938;2022-11-06T14:17:57;98031.22;;;9.66;100.00
63607;BME280;51327;52.466;-1.938;2022-11-06T14:20:35;98024.22;;;9.65;100.00
63607;BME280;51327;52.466;-1.938;2022-11-06T14:26:01;98044.13;;;9.71;100.00
63607;BME280;51327;52.466;-1.938;2022-11-06T14:28:28;98046.53;;;9.74;100.00
63607;BME280;51327;52.466;-1.938;2022-11-06T14:30:57;98039.38;;;9.74;100.00
63607;BME280;51327;52.466;-1.938;2022-11-06T14:36:17;98047.22;;;9.76;100.00